Time;durP1;ratioP1;P1;durP2;ratioP2;P2;SDS_P1;SDS_P2;PMS_P1;PMS_P2;Temp;Humidity;BMP_temperature;BMP_pressure;BME280_temperature;BME280_humidity;BME280_pressure;Samples;Min_cycle;Max_cycle;Signal;HPM_P1;HPM_P2
2022/01/30 00:03:43;;;;;;;4.20;3.00;;;;;;;3.03;90.66;97742.23;219933;1274;24272;-72
2022/01/30 00:09:10;;;;;;;;;;;;;;;;;;;;;
2022/01/30 00:14:54;;;;;;;;;;;;;;;;;;;;;
2022/01/30 00:20:58;;;;;;;3.00;2.70;;;;;;;3.17;90.49;97721.91;219643;1276;22547;-73
2022/01/30 00:27:03;;;;;;;2.20;1.80;;;;;;;3.24;90.32;97718.35;220214;1274;22556;-72
2022/01/30 00:33:08;;;;;;;2.90;2.10;;;;;;;3.29;89.96;97711.73;219643;1275;22591;-73
2022/01/30 00:38:35;;;;;;;2.90;2.30;;;;;;;3.29;89.97;97712.05;219820;1274;22554;-71
2022/01/30 00:43:57;;;;;;;3.40;3.10;;;;;;;3.27;90.22;97718.03;220417;1274;22661;-72
2022/01/30 00:49:22;;;;;;;3.30;2.80;;;;;;;3.26;90.34;97717.62;219800;1274;25253;-72
2022/01/30 00:54:41;;;;;;;4.10;2.90;;;;;;;3.29;90.54;97742.34;219723;1274;26361;-72
2022/01/30 01:00:23;;;;;;;;;;;;;;;;;;;;;
2022/01/30 01:07:14;;;;;;;;;;;;;;;;;;;;;
2022/01/30 01:25:42;;;;;;;2.50;0.90;;;;;;;3.57;90.34;97741.39;219823;1274;24344;-72
2022/01/30 01:31:32;;;;;;;;;;;;;;;;;;;;;
2022/01/30 01:37:25;;;;;;;3.50;1.10;;;;;;;4.13;86.74;97750.57;219909;1274;23205;-73
2022/01/30 01:43:48;;;;;;;;;;;;;;;;;;;;;
2022/01/30 01:50:16;;;;;;;;;;;;;;;;;;;;;
2022/01/30 01:56:17;;;;;;;7.20;1.40;;;;;;;4.17;83.33;97752.68;219747;1274;24239;-72
2022/01/30 02:02:16;;;;;;;4.70;1.60;;;;;;;4.05;83.10;97742.71;219879;1274;22566;-73
2022/01/30 02:14:13;;;;;;;5.60;1.70;;;;;;;3.93;82.82;97715.34;219839;1275;25578;-73
2022/01/30 02:26:33;;;;;;;;;;;;;;;;;;;;;
2022/01/30 02:32:34;;;;;;;;;;;;;;;4.13;75.64;97707.16;220024;1274;22532;-73
2022/01/30 02:38:53;;;;;;;5.50;1.20;;;;;;;4.21;73.29;97705.79;219579;1277;22672;-73
2022/01/30 02:45:06;;;;;;;3.10;1.00;;;;;;;4.20;72.38;97696.64;219622;1276;22566;-73
2022/01/30 02:50:49;;;;;;;5.30;0.80;;;;;;;4.17;71.92;97696.38;219827;1274;22547;-73
2022/01/30 02:57:18;;;;;;;2.10;0.80;;;;;;;4.15;71.47;97696.55;219917;1274;24282;-73
2022/01/30 03:04:09;;;;;;;;;;;;;;;;;;;;;
2022/01/30 03:10:03;;;;;;;4.40;0.90;;;;;;;4.34;67.01;97676.40;219920;1274;22557;-72
2022/01/30 03:15:55;;;;;;;7.10;1.60;;;;;;;4.38;67.21;97678.55;219782;1271;23333;-73
2022/01/30 03:21:50;;;;;;;7.10;0.80;;;;;;;4.37;68.07;97669.65;219819;1275;24221;-72
2022/01/30 03:33:02;;;;;;;4.90;0.60;;;;;;;4.42;68.98;97653.40;219615;1277;25365;-71
2022/01/30 03:38:35;;;;;;;3.10;0.70;;;;;;;4.44;69.06;97654.76;220138;1274;22755;-73
2022/01/30 03:43:39;;;;;;;6.20;1.20;;;;;;;4.40;70.01;97638.08;219829;1274;23997;-73
2022/01/30 03:49:07;;;;;;;3.90;0.90;;;;;;;4.35;70.80;97642.40;219582;1274;22697;-73
2022/01/30 03:54:56;;;;;;;7.10;1.10;;;;;;;4.29;70.83;97654.00;219456;1274;24253;-72
2022/01/30 04:00:13;;;;;;;5.50;1.10;;;;;;;4.24;71.83;97693.33;219812;1274;22565;-73
2022/01/30 04:05:38;;;;;;;3.00;0.80;;;;;;;4.21;71.01;97707.75;219856;1275;24341;-71
2022/01/30 04:10:52;;;;;;;3.10;0.80;;;;;;;4.14;72.03;97718.13;219851;1275;23097;-73
2022/01/30 04:16:25;;;;;;;2.50;0.80;;;;;;;4.05;72.04;97700.56;219685;1277;22665;-73
2022/01/30 04:22:39;;;;;;;6.10;0.90;;;;;;;3.93;72.52;97700.46;219768;1274;23746;-72
2022/01/30 04:28:16;;;;;;;3.30;0.70;;;;;;;3.77;72.84;97698.71;219708;1274;24282;-72
2022/01/30 04:33:52;;;;;;;4.30;0.80;;;;;;;3.65;72.62;97691.55;219790;1274;26486;-72
2022/01/30 04:39:41;;;;;;;3.00;0.70;;;;;;;3.65;71.79;97673.58;219448;1274;22550;-71
2022/01/30 04:53:08;;;;;;;3.00;0.70;;;;;;;3.84;68.90;97654.60;219564;1275;22606;-72
2022/01/30 05:04:13;;;;;;;;;;;;;;;;;;;;;
2022/01/30 05:10:29;;;;;;;2.20;1.10;;;;;;;4.14;65.36;97635.32;219734;1274;22575;-72
2022/01/30 05:17:14;;;;;;;;;;;;;;;;;;;;;
2022/01/30 05:23:19;;;;;;;5.30;1.70;;;;;;;4.23;65.85;97625.17;219082;1281;24259;-72
2022/01/30 05:29:02;;;;;;;2.70;0.60;;;;;;;4.19;66.52;97616.20;219491;1275;22548;-72
2022/01/30 05:34:54;;;;;;;2.30;0.50;;;;;;;4.16;66.83;97602.81;219588;1274;25441;-72
2022/01/30 05:40:24;;;;;;;2.70;0.60;;;;;;;4.16;66.44;97613.73;219801;1274;22601;-71
2022/01/30 05:46:11;;;;;;;4.50;0.60;;;;;;;4.16;66.27;97602.60;219484;1274;22589;-74
2022/01/30 05:51:39;;;;;;;3.70;0.70;;;;;;;4.14;65.21;97578.92;219559;1277;22585;-72
2022/01/30 05:57:27;;;;;;;;;;;;;;;;;;;;;
2022/01/30 06:02:49;;;;;;;2.40;0.80;;;;;;;4.15;64.86;97546.05;219709;1274;22628;-72
2022/01/30 06:09:22;;;;;;;;;;;;;;;;;;;;;
2022/01/30 06:15:20;;;;;;;1.50;0.40;;;;;;;4.08;64.30;97528.50;219534;1277;22715;-71
2022/01/30 06:21:11;;;;;;;4.30;0.50;;;;;;;3.99;65.55;97542.60;219765;1274;25080;-72
2022/01/30 06:27:25;;;;;;;2.30;0.70;;;;;;;3.92;64.99;97543.55;219862;1275;25314;-72
2022/01/30 06:32:56;;;;;;;0.90;0.20;;;;;;;3.84;65.53;97527.95;219294;1277;22577;-71
2022/01/30 06:38:30;;;;;;;2.70;0.70;;;;;;;3.84;65.65;97540.41;219659;1275;22994;-71
2022/01/30 06:44:45;;;;;;;3.40;0.80;;;;;;;3.86;65.10;97532.88;219697;1274;22629;-72
2022/01/30 06:50:30;;;;;;;2.60;0.60;;;;;;;3.91;65.67;97533.54;219650;1277;24121;-73
2022/01/30 06:55:53;;;;;;;2.10;0.90;;;;;;;3.93;65.80;97541.52;219599;1277;22568;-72
2022/01/30 07:01:18;;;;;;;1.40;0.80;;;;;;;3.93;65.82;97538.55;219569;1275;24231;-73
2022/01/30 07:07:05;;;;;;;;;;;;;;;;;;;;;
2022/01/30 07:12:20;;;;;;;5.50;0.80;;;;;;;3.89;66.41;97528.30;219671;1274;22589;-73
2022/01/30 07:18:10;;;;;;;2.00;0.80;;;;;;;3.87;66.91;97531.13;219968;1274;24240;-71
2022/01/30 07:23:15;;;;;;;1.90;0.60;;;;;;;3.86;67.05;97532.45;219794;1274;22741;-71
2022/01/30 07:28:30;;;;;;;3.60;0.80;;;;;;;3.85;67.13;97551.85;219780;1275;25402;-72
2022/01/30 07:33:35;;;;;;;2.00;0.80;;;;;;;3.84;67.43;97575.55;219673;1277;22712;-73
2022/01/30 07:38:37;;;;;;;3.60;0.80;;;;;;;3.81;67.84;97556.17;220066;1274;22567;-74
2022/01/30 07:43:48;;;;;;;2.40;0.60;;;;;;;3.78;67.22;97536.11;219498;1277;26121;-72
2022/01/30 07:48:54;;;;;;;1.20;0.60;;;;;;;3.77;66.96;97510.90;220007;1274;22720;-72
2022/01/30 07:54:00;;;;;;;2.00;0.70;;;;;;;3.78;67.12;97508.61;219821;1274;22712;-71
2022/01/30 07:59:11;;;;;;;2.60;0.60;;;;;;;3.85;66.94;97487.00;219844;1274;22586;-72
2022/01/30 08:04:25;;;;;;;2.80;0.80;;;;;;;3.98;66.94;97513.73;219806;1274;22558;-72
2022/01/30 08:10:01;;;;;;;2.70;1.00;;;;;;;3.99;67.17;97573.34;219569;1274;26236;-72
2022/01/30 08:15:08;;;;;;;2.70;1.10;;;;;;;3.65;69.75;97608.95;219671;1274;22581;-72
2022/01/30 08:20:16;;;;;;;3.60;1.10;;;;;;;3.07;72.34;97623.30;219428;1274;286628;-72
2022/01/30 08:25:20;;;;;;;4.90;1.00;;;;;;;2.60;74.51;97621.29;219894;1275;22873;-73
2022/01/30 08:30:46;;;;;;;;;;;;;;;;;;;;;
2022/01/30 08:35:52;;;;;;;3.20;1.10;;;;;;;2.03;77.62;97614.65;219525;1274;24375;-72
2022/01/30 08:40:54;;;;;;;7.70;1.60;;;;;;;1.97;78.84;97595.15;219741;1274;22556;-72
2022/01/30 08:46:25;;;;;;;5.70;1.50;;;;;;;1.97;78.91;97585.12;219844;1274;22555;-74
2022/01/30 08:51:46;;;;;;;4.40;0.90;;;;;;;2.08;79.25;97575.63;219662;1274;25313;-73
2022/01/30 08:57:08;;;;;;;4.20;1.00;;;;;;;2.26;79.21;97585.05;219973;1274;26405;-72
2022/01/30 09:02:16;;;;;;;6.30;0.90;;;;;;;2.47;78.59;97564.34;220229;1274;24329;-72
2022/01/30 09:07:22;;;;;;;3.30;1.10;;;;;;;2.63;77.64;97563.58;219869;1274;22603;-74
2022/01/30 09:12:36;;;;;;;3.30;1.10;;;;;;;2.77;76.73;97568.13;219744;1274;25372;-73
2022/01/30 09:17:57;;;;;;;5.00;1.30;;;;;;;2.87;76.18;97571.02;219767;1274;25432;-73
2022/01/30 09:23:28;;;;;;;7.80;1.00;;;;;;;2.99;74.82;97590.25;219694;1274;23840;-73
2022/01/30 09:29:06;;;;;;;;;;;;;;;;;;;;;
2022/01/30 09:35:15;;;;;;;9.80;1.50;;;;;;;3.29;72.58;97556.62;220015;1274;25407;-73
2022/01/30 09:40:21;;;;;;;5.80;1.40;;;;;;;3.45;71.09;97575.14;219598;1274;22575;-72
2022/01/30 09:45:37;;;;;;;;;;;;;;;;;;;;;
2022/01/30 09:51:08;;;;;;;3.00;1.40;;;;;;;3.71;69.36;97578.79;219604;1274;22726;-73
2022/01/30 09:56:13;;;;;;;3.90;0.80;;;;;;;3.75;69.16;97571.94;219638;1274;22724;-73
2022/01/30 10:01:34;;;;;;;5.90;1.50;;;;;;;3.81;67.65;97575.94;219899;1274;22567;-74
2022/01/30 10:07:15;;;;;;;7.00;1.90;;;;;;;3.84;67.98;97562.73;219622;1274;24304;-73
2022/01/30 10:13:19;;;;;;;6.60;1.50;;;;;;;3.85;68.67;97564.53;219828;1274;22595;-73
2022/01/30 10:18:51;;;;;;;3.00;1.20;;;;;;;3.85;69.74;97545.60;219884;1274;22681;-73
2022/01/30 10:23:54;;;;;;;4.70;0.90;;;;;;;3.80;69.96;97550.88;219938;1274;22562;-73
2022/01/30 10:29:50;;;;;;;3.40;1.00;;;;;;;3.79;70.39;97545.64;219869;1274;22627;-71
2022/01/30 10:35:46;;;;;;;2.50;1.20;;;;;;;3.75;71.41;97556.15;219483;1275;22559;-73
2022/01/30 10:40:52;;;;;;;4.90;1.30;;;;;;;3.68;72.08;97564.92;220245;1274;23859;-73
2022/01/30 10:46:39;;;;;;;4.50;1.30;;;;;;;3.74;72.52;97551.97;219896;1274;25472;-73
2022/01/30 10:52:15;;;;;;;5.10;1.30;;;;;;;3.79;72.66;97563.05;219989;1274;24341;-73
2022/01/30 10:58:07;;;;;;;3.90;1.20;;;;;;;3.71;73.02;97578.69;219700;1274;22554;-73
2022/01/30 11:04:00;;;;;;;;;;;;;;;;;;;;;
2022/01/30 11:09:34;;;;;;;8.20;2.00;;;;;;;3.15;75.50;97599.48;219692;1274;25257;-72
2022/01/30 11:20:07;;;;;;;5.70;1.80;;;;;;;2.92;76.15;97597.56;218761;1282;22608;-72
2022/01/30 11:25:32;;;;;;;9.00;1.30;;;;;;;2.97;76.08;97603.75;219237;1280;22666;-72
2022/01/30 11:30:35;;;;;;;5.10;1.40;;;;;;;3.12;75.30;97636.11;219403;1280;22834;-73
2022/01/30 11:35:45;;;;;;;;;;;;;;;3.28;74.76;97627.35;219111;1280;22571;-73
2022/01/30 11:41:35;;;;;;;5.90;1.70;;;;;;;3.38;74.61;97630.08;219122;1280;22638;-73
2022/01/30 11:46:58;;;;;;;6.30;1.90;;;;;;;3.43;75.11;97631.07;219817;1274;24400;-73
2022/01/30 11:52:17;;;;;;;5.20;1.30;;;;;;;3.41;75.16;97620.48;219840;1274;24404;-73
2022/01/30 11:57:38;;;;;;;;;;;;;;;;;;;;;
2022/01/30 12:03:31;;;;;;;8.10;2.10;;;;;;;3.49;74.74;97637.35;220003;1274;22701;-74
2022/01/30 12:08:56;;;;;;;7.50;2.40;;;;;;;3.55;74.36;97633.89;219970;1274;27353;-72
2022/01/30 12:14:29;;;;;;;3.10;1.20;;;;;;;3.62;73.77;97636.56;219844;1274;25526;-73
2022/01/30 12:20:05;;;;;;;;;;;;;;;3.69;73.38;97625.31;220059;1274;22689;-73
2022/01/30 12:26:01;;;;;;;7.70;1.90;;;;;;;3.78;71.87;97611.12;219785;1274;22566;-73
2022/01/30 12:31:45;;;;;;;5.20;1.20;;;;;;;3.89;70.51;97612.30;219281;1274;22549;-72
2022/01/30 12:42:26;;;;;;;3.40;1.40;;;;;;;4.19;69.80;97601.00;220157;1274;22727;-73
2022/01/30 12:47:53;;;;;;;5.60;1.70;;;;;;;4.25;68.84;97612.23;219905;1274;22568;-73
2022/01/30 12:53:29;;;;;;;;;;;;;;;;;;;;;
2022/01/30 12:58:48;;;;;;;5.90;1.60;;;;;;;4.15;69.98;97633.84;219839;1274;24283;-74
2022/01/30 13:04:21;;;;;;;6.00;1.30;;;;;;;4.07;69.32;97630.16;219756;1274;25681;-73
2022/01/30 13:09:39;;;;;;;7.50;1.70;;;;;;;4.01;69.80;97647.59;219661;1274;22657;-73
2022/01/30 13:15:06;;;;;;;6.70;1.80;;;;;;;3.99;70.05;97666.40;219978;1274;24250;-73
2022/01/30 13:20:35;;;;;;;8.00;2.10;;;;;;;3.90;70.75;97665.02;219940;1274;22757;-73
2022/01/30 13:26:00;;;;;;;6.50;1.60;;;;;;;3.76;71.05;97666.39;219722;1274;23052;-74
2022/01/30 13:31:48;;;;;;;6.00;1.60;;;;;;;3.74;70.56;97664.44;219677;1274;23854;-73
2022/01/30 13:37:36;;;;;;;7.40;2.00;;;;;;;3.80;70.51;97702.20;220061;1274;23728;-73
2022/01/30 13:43:26;;;;;;;8.50;1.70;;;;;;;3.84;69.63;97700.16;219757;1274;22657;-71
2022/01/30 13:49:49;;;;;;;;;;;;;;;;;;;;;
2022/01/30 13:55:11;;;;;;;7.30;1.80;;;;;;;3.72;69.93;97742.17;219731;1277;25265;-73
2022/01/30 14:00:38;;;;;;;9.60;2.30;;;;;;;3.68;70.13;97746.41;219694;1274;25323;-73
2022/01/30 14:06:46;;;;;;;6.50;1.50;;;;;;;3.61;70.47;97761.05;219900;1274;24281;-73
2022/01/30 14:12:25;;;;;;;;;;;;;;;;;;;;;
2022/01/30 14:17:40;;;;;;;4.40;1.30;;;;;;;3.42;71.97;97801.15;219746;1274;22570;-73
2022/01/30 14:23:06;;;;;;;10.10;2.80;;;;;;;3.32;72.72;97789.72;219793;1274;22563;-72
2022/01/30 14:28:30;;;;;;;8.20;1.70;;;;;;;3.25;72.70;97817.82;219786;1274;25424;-72
2022/01/30 14:34:19;;;;;;;8.50;1.70;;;;;;;3.26;72.70;97827.26;219917;1274;25401;-73
2022/01/30 14:40:03;;;;;;;7.20;2.40;;;;;;;3.25;72.86;97814.17;219680;1277;24342;-73
2022/01/30 14:45:09;;;;;;;7.80;1.60;;;;;;;3.22;73.10;97832.75;219525;1277;23320;-73
2022/01/30 14:50:35;;;;;;;11.00;1.80;;;;;;;3.20;73.46;97850.48;220050;1274;25253;-73
2022/01/30 14:55:43;;;;;;;10.20;2.80;;;;;;;3.16;73.88;97863.60;219850;1274;24262;-73
2022/01/30 15:00:58;;;;;;;10.80;2.60;;;;;;;3.14;74.08;97880.42;219735;1274;22544;-72
2022/01/30 15:06:06;;;;;;;5.80;1.80;;;;;;;3.12;74.33;97887.15;219802;1274;22545;-74
2022/01/30 15:11:46;;;;;;;7.70;2.00;;;;;;;3.13;74.21;97902.98;219601;1274;25536;-73
2022/01/30 15:16:53;;;;;;;10.30;2.10;;;;;;;3.16;74.34;97917.11;219779;1274;24256;-72
2022/01/30 15:21:59;;;;;;;10.00;2.60;;;;;;;3.17;74.08;97929.56;219716;1274;22550;-73
2022/01/30 15:27:26;;;;;;;6.60;2.40;;;;;;;3.19;73.98;97931.25;219843;1274;24297;-73
2022/01/30 15:32:59;;;;;;;7.10;1.70;;;;;;;3.23;73.83;97956.89;219556;1276;22855;-72
2022/01/30 15:38:34;;;;;;;11.30;2.80;;;;;;;3.28;73.55;97954.41;219668;1276;22571;-73
2022/01/30 15:43:48;;;;;;;11.10;2.40;;;;;;;3.25;73.62;97967.11;219798;1274;22573;-72
2022/01/30 15:55:00;;;;;;;12.50;2.60;;;;;;;3.35;72.92;97982.13;219530;1276;22567;-72
2022/01/30 16:06:10;;;;;;;9.30;2.40;;;;;;;3.55;70.92;97997.81;220039;1274;25425;-73
2022/01/30 16:17:23;;;;;;;;;;;;;;;;;;;;;
2022/01/30 16:22:25;;;;;;;9.30;2.30;;;;;;;3.72;70.10;98003.52;219798;1274;25816;-73
2022/01/30 16:27:41;;;;;;;6.50;1.70;;;;;;;3.73;69.96;98009.60;219856;1274;22554;-73
2022/01/30 16:33:09;;;;;;;7.90;2.10;;;;;;;3.74;69.43;98020.57;219719;1274;22685;-72
2022/01/30 16:38:18;;;;;;;13.30;2.50;;;;;;;3.77;69.15;98022.22;219572;1274;22555;-72
2022/01/30 16:43:40;;;;;;;12.10;2.40;;;;;;;3.79;68.91;98046.86;219719;1274;25333;-73
2022/01/30 16:48:50;;;;;;;11.10;2.70;;;;;;;3.77;68.94;98039.44;220157;1274;25436;-72
2022/01/30 16:54:37;;;;;;;8.40;2.40;;;;;;;3.74;68.71;98040.08;219920;1274;24246;-73
2022/01/30 16:59:50;;;;;;;14.10;3.40;;;;;;;3.73;68.03;98039.76;219998;1274;22636;-72
2022/01/30 17:11:49;;;;;;;10.70;2.80;;;;;;;3.72;68.25;98059.66;219997;1274;22549;-72
2022/01/30 17:16:56;;;;;;;13.10;2.60;;;;;;;3.72;67.20;98053.26;220133;1274;22636;-73
2022/01/30 17:22:01;;;;;;;10.10;2.40;;;;;;;3.76;67.43;98057.30;220331;1274;24287;-72
2022/01/30 17:27:22;;;;;;;12.70;3.50;;;;;;;3.72;67.56;98081.35;219861;1274;26526;-73
2022/01/30 17:32:30;;;;;;;10.30;2.60;;;;;;;3.70;67.66;98083.77;219803;1274;22562;-73
2022/01/30 17:37:52;;;;;;;10.00;2.70;;;;;;;3.67;67.35;98080.41;219670;1274;25394;-72
2022/01/30 17:43:07;;;;;;;9.70;2.40;;;;;;;3.67;66.96;98096.33;219788;1274;25270;-72
2022/01/30 17:48:13;;;;;;;13.00;3.40;;;;;;;3.67;66.70;98099.45;220001;1274;22580;-72
2022/01/30 17:53:27;;;;;;;13.30;3.70;;;;;;;3.64;66.82;98109.77;220545;1274;22508;-73
2022/01/30 17:58:33;;;;;;;9.50;2.80;;;;;;;3.60;66.71;98114.56;219667;1274;22644;-73
2022/01/30 18:04:02;;;;;;;11.00;2.70;;;;;;;3.58;66.18;98119.75;219804;1274;25389;-74
2022/01/30 18:09:15;;;;;;;10.70;2.60;;;;;;;3.56;65.85;98116.15;219366;1276;23340;-72
2022/01/30 18:14:18;;;;;;;14.30;2.60;;;;;;;3.57;65.40;98134.05;219739;1273;24248;-72
2022/01/30 18:19:26;;;;;;;12.80;3.20;;;;;;;3.57;65.39;98117.52;219834;1274;22595;-72
2022/01/30 18:24:44;;;;;;;8.00;2.70;;;;;;;3.54;65.46;98117.52;219681;1274;22715;-73
2022/01/30 18:29:47;;;;;;;12.30;3.60;;;;;;;3.55;64.90;98148.07;219856;1274;25324;-72
2022/01/30 18:35:01;;;;;;;10.50;2.30;;;;;;;3.55;64.87;98142.10;219713;1274;24350;-72
2022/01/30 18:46:15;;;;;;;12.00;3.40;;;;;;;3.55;64.08;98143.26;219628;1274;22709;-72
2022/01/30 18:51:37;;;;;;;14.70;3.00;;;;;;;3.51;64.10;98154.27;219768;1275;26409;-72
2022/01/30 18:56:48;;;;;;;9.90;2.50;;;;;;;3.49;63.54;98168.95;219731;1274;24355;-72
2022/01/30 19:02:28;;;;;;;13.50;2.90;;;;;;;3.54;63.21;98173.43;219619;1275;22680;-72
2022/01/30 19:07:35;;;;;;;13.30;3.60;;;;;;;3.55;63.21;98178.27;219650;1275;24324;-72
2022/01/30 19:12:40;;;;;;;15.50;2.90;;;;;;;3.52;63.65;98179.41;219910;1274;22506;-72
2022/01/30 19:17:51;;;;;;;12.30;3.20;;;;;;;3.50;63.63;98181.89;219829;1277;24252;-72
2022/01/30 19:23:05;;;;;;;;;;;;;;;3.46;64.03;98204.85;219940;1274;24282;-72
2022/01/30 19:28:31;;;;;;;14.50;3.00;;;;;;;3.40;63.98;98208.80;219830;1274;24251;-73
2022/01/30 19:33:45;;;;;;;8.60;2.40;;;;;;;3.38;64.07;98210.10;219819;1274;24486;-72
2022/01/30 19:39:05;;;;;;;10.40;2.40;;;;;;;3.38;63.80;98218.89;219769;1274;22640;-72
2022/01/30 19:44:12;;;;;;;9.90;2.80;;;;;;;3.37;63.56;98225.23;219588;1274;22704;-73
2022/01/30 19:49:27;;;;;;;10.30;3.10;;;;;;;3.34;64.10;98223.15;220060;1274;22634;-72
2022/01/30 19:54:32;;;;;;;16.30;4.20;;;;;;;3.28;64.88;98243.23;219950;1274;22903;-72
2022/01/30 19:59:47;;;;;;;14.10;3.60;;;;;;;3.17;65.56;98225.52;219805;1274;22541;-72
2022/01/30 20:04:53;;;;;;;17.10;4.70;;;;;;;3.10;65.91;98238.02;219689;1274;24077;-72
2022/01/30 20:09:55;;;;;;;13.50;3.30;;;;;;;3.06;66.11;98240.95;219531;1276;24298;-72
2022/01/30 20:15:01;;;;;;;8.30;2.40;;;;;;;3.04;66.04;98234.89;220044;1274;24248;-72
2022/01/30 20:20:09;;;;;;;11.00;4.00;;;;;;;3.05;65.59;98237.48;219452;1274;347130;-72
2022/01/30 20:25:12;;;;;;;14.80;3.40;;;;;;;3.07;65.30;98243.32;220092;1274;25414;-72
2022/01/30 20:30:38;;;;;;;11.60;2.80;;;;;;;3.07;65.17;98246.78;219931;1274;25399;-72
2022/01/30 20:36:22;;;;;;;10.40;2.20;;;;;;;3.05;65.05;98241.83;220344;1274;24779;-71
2022/01/30 20:42:09;;;;;;;15.70;3.20;;;;;;;3.05;64.68;98237.70;219795;1274;23956;-72
2022/01/30 20:47:11;;;;;;;12.40;2.90;;;;;;;3.04;64.78;98233.29;219668;1275;25255;-72
2022/01/30 20:52:14;;;;;;;13.70;3.30;;;;;;;3.02;64.59;98249.63;219785;1277;25242;-71
2022/01/30 20:57:16;;;;;;;9.80;3.00;;;;;;;3.01;64.62;98246.61;219834;1274;25415;-72
2022/01/30 21:02:24;;;;;;;12.60;3.10;;;;;;;2.99;64.77;98252.90;219876;1274;23202;-71
2022/01/30 21:07:27;;;;;;;14.20;3.00;;;;;;;2.94;65.15;98237.87;219686;1274;22633;-72
2022/01/30 21:12:40;;;;;;;13.10;3.40;;;;;;;2.88;66.58;98233.16;219592;1276;26536;-72
2022/01/30 21:17:47;;;;;;;11.80;2.60;;;;;;;2.78;66.79;98229.00;219974;1274;22659;-71
2022/01/30 21:22:58;;;;;;;14.00;3.40;;;;;;;2.69;66.64;98217.13;219825;1274;25364;-72
2022/01/30 21:28:11;;;;;;;;;;;;;;;;;;;;;
2022/01/30 21:33:30;;;;;;;10.50;3.10;;;;;;;2.63;66.40;98214.41;219641;1274;22639;-71
2022/01/30 21:38:32;;;;;;;12.50;3.30;;;;;;;2.65;66.22;98220.89;219930;1274;22606;-71
2022/01/30 21:43:35;;;;;;;9.70;3.00;;;;;;;2.66;66.06;98238.30;219742;1274;23006;-71
2022/01/30 21:48:50;;;;;;;10.20;3.10;;;;;;;2.68;65.96;98245.67;219541;1275;25104;-72
2022/01/30 21:54:16;;;;;;;12.20;3.20;;;;;;;2.68;66.11;98245.05;219682;1274;22569;-72
2022/01/30 21:59:29;;;;;;;12.10;2.90;;;;;;;2.68;65.92;98248.70;219721;1274;25270;-71
2022/01/30 22:04:42;;;;;;;10.40;2.50;;;;;;;2.69;65.70;98252.30;220135;1274;22558;-72
2022/01/30 22:10:09;;;;;;;;;;;;;;;;;;;;;
2022/01/30 22:15:37;;;;;;;;;;;;;;;;;;;;;
2022/01/30 22:21:19;;;;;;;13.50;3.30;;;;;;;2.63;65.11;98252.44;219810;1274;25468;-72
2022/01/30 22:27:01;;;;;;;10.20;2.70;;;;;;;2.62;64.48;98250.70;219839;1275;25446;-70
2022/01/30 22:38:31;;;;;;;6.50;2.00;;;;;;;2.60;64.44;98268.33;219806;1275;25022;-71
2022/01/30 22:43:52;;;;;;;13.20;2.50;;;;;;;2.58;64.09;98280.02;219705;1275;22636;-72
2022/01/30 22:49:28;;;;;;;;;;;;;;;;;;;;;
2022/01/30 22:55:16;;;;;;;9.30;2.30;;;;;;;2.56;63.86;98280.83;220038;1275;22635;-72
2022/01/30 23:00:36;;;;;;;10.10;2.80;;;;;;;2.54;64.18;98279.80;219908;1274;22566;-72
2022/01/30 23:05:40;;;;;;;13.20;3.00;;;;;;;2.51;63.85;98279.77;220301;1274;25392;-71
2022/01/30 23:11:26;;;;;;;10.90;2.70;;;;;;;2.47;63.68;98289.30;219874;1274;22611;-70
2022/01/30 23:16:28;;;;;;;12.70;2.50;;;;;;;2.40;63.70;98282.02;219979;1274;24906;-72
2022/01/30 23:21:40;;;;;;;7.90;2.50;;;;;;;2.33;63.83;98289.09;220013;1274;25265;-72
2022/01/30 23:27:02;;;;;;;9.80;2.60;;;;;;;2.27;63.59;98291.38;220029;1274;22567;-70
2022/01/30 23:32:25;;;;;;;6.90;1.60;;;;;;;2.23;63.48;98317.92;219787;1275;23849;-72
2022/01/30 23:37:27;;;;;;;10.10;2.10;;;;;;;2.22;63.55;98325.60;220143;1275;24468;-71
2022/01/30 23:42:40;;;;;;;10.50;2.90;;;;;;;2.24;63.29;98321.80;220010;1274;22683;-71
2022/01/30 23:48:56;;;;;;;8.20;2.40;;;;;;;2.23;63.64;98332.84;220394;1274;24715;-71
2022/01/30 23:54:06;;;;;;;16.00;3.00;;;;;;;2.21;63.49;98334.60;219981;1274;22872;-72
2022/01/30 23:59:47;;;;;;;;;;;;;;;;;;;;;
